createdAt,value
2018-05-06T00:01:04.278Z,93.10
2018-05-06T00:03:31.805Z,93.10
2018-05-06T00:05:59.375Z,93.40
2018-05-06T00:08:26.995Z,93.70
2018-05-06T00:10:54.526Z,94.00
2018-05-06T00:13:22.058Z,94.30
2018-05-06T00:15:50.392Z,95.10
2018-05-06T00:18:17.918Z,94.80
2018-05-06T00:20:45.856Z,95.10
2018-05-06T00:23:13.454Z,95.30
2018-05-06T00:25:41.009Z,95.50
2018-05-06T00:28:08.555Z,95.70
2018-05-06T00:30:36.144Z,95.70
2018-05-06T00:33:03.683Z,95.90
2018-05-06T00:35:31.261Z,96.20
2018-05-06T00:37:58.918Z,96.50
2018-05-06T00:40:27.244Z,96.80
2018-05-06T00:42:54.772Z,96.80
2018-05-06T00:45:23.197Z,97.20
2018-05-06T00:47:50.729Z,97.20
2018-05-06T00:50:19.060Z,97.60
2018-05-06T00:52:46.641Z,97.60
2018-05-06T00:55:14.168Z,97.70
2018-05-06T00:57:42.484Z,98.10
2018-05-06T01:00:10.130Z,98.10
2018-05-06T01:02:38.425Z,98.20
2018-05-06T01:05:05.949Z,98.20
2018-05-06T01:07:33.525Z,98.30
2018-05-06T01:10:01.063Z,98.40
2018-05-06T01:12:28.601Z,98.70
2018-05-06T01:14:57.038Z,98.70
2018-05-06T01:17:24.577Z,98.70
2018-05-06T01:19:52.113Z,99.00
2018-05-06T01:22:19.693Z,99.30
2018-05-06T01:24:48.012Z,99.60
2018-05-06T01:27:17.002Z,99.90
2018-05-06T01:29:46.278Z,99.90
2018-05-06T01:32:13.828Z,99.90
2018-05-06T01:34:41.373Z,99.90
2018-05-06T01:37:08.949Z,99.90
2018-05-06T01:39:36.482Z,99.90
2018-05-06T01:42:04.004Z,99.90
2018-05-06T01:44:31.580Z,99.90
2018-05-06T01:46:59.108Z,99.90
2018-05-06T01:49:27.405Z,99.90
2018-05-06T01:51:54.980Z,99.90
2018-05-06T01:54:22.529Z,99.90
2018-05-06T01:56:50.843Z,99.90
2018-05-06T01:59:18.421Z,99.90
2018-05-06T02:01:46.592Z,99.90
2018-05-06T02:04:14.120Z,99.90
2018-05-06T02:06:41.705Z,99.90
2018-05-06T02:09:09.236Z,99.90
2018-05-06T02:11:36.778Z,99.90
2018-05-06T02:14:04.361Z,99.90
2018-05-06T02:16:31.897Z,99.90
2018-05-06T02:19:00.198Z,99.90
2018-05-06T02:21:28.536Z,99.90
2018-05-06T02:23:56.069Z,99.90
2018-05-06T02:26:23.601Z,99.90
2018-05-06T02:28:51.184Z,99.90
2018-05-06T02:31:19.503Z,99.90
2018-05-06T02:33:47.033Z,99.90
2018-05-06T02:36:14.600Z,99.90
2018-05-06T02:38:42.126Z,99.90
2018-05-06T02:41:09.661Z,99.90
2018-05-06T02:43:37.240Z,99.90
2018-05-06T02:46:05.537Z,99.90
2018-05-06T02:48:33.832Z,99.90
2018-05-06T02:51:01.421Z,99.90
2018-05-06T02:53:28.960Z,99.90
2018-05-06T02:55:57.250Z,99.90
2018-05-06T02:58:25.594Z,99.90
2018-05-06T03:00:53.205Z,99.90
2018-05-06T03:03:21.592Z,99.90
2018-05-06T03:05:50.036Z,99.90
2018-05-06T03:08:17.654Z,99.90
2018-05-06T03:10:46.952Z,99.90
2018-05-06T03:13:15.392Z,99.90
2018-05-06T03:15:43.011Z,99.90
2018-05-06T03:18:10.630Z,99.90
2018-05-06T03:20:38.289Z,99.90
2018-05-06T03:23:05.917Z,99.90
2018-05-06T03:25:33.532Z,99.90
2018-05-06T03:28:01.956Z,99.90
2018-05-06T03:30:29.568Z,99.90
2018-05-06T03:32:57.189Z,99.90
2018-05-06T03:35:24.859Z,99.90
2018-05-06T03:37:52.491Z,99.90
2018-05-06T03:40:20.122Z,99.90
2018-05-06T03:42:47.786Z,99.90
2018-05-06T03:45:15.409Z,99.90
2018-05-06T03:47:43.029Z,99.90
2018-05-06T03:50:10.686Z,99.90
2018-05-06T03:52:38.312Z,99.90
2018-05-06T03:55:05.924Z,99.90
2018-05-06T03:57:45.407Z,99.90
2018-05-06T04:00:24.729Z,99.90
2018-05-06T04:02:53.261Z,99.90
2018-05-06T04:05:20.887Z,99.90
2018-05-06T04:07:48.509Z,99.90
2018-05-06T04:10:16.165Z,99.90
2018-05-06T04:12:43.838Z,99.90
2018-05-06T04:15:11.595Z,99.90
2018-05-06T04:17:39.489Z,99.90
2018-05-06T04:20:07.109Z,99.90
2018-05-06T04:22:34.817Z,99.90
2018-05-06T04:25:02.645Z,99.90
2018-05-06T04:27:30.274Z,98.90
2018-05-06T04:29:57.886Z,97.50
2018-05-06T04:32:25.638Z,95.60
2018-05-06T04:34:53.252Z,93.00
2018-05-06T04:37:20.976Z,91.30
2018-05-06T04:39:48.761Z,89.20
2018-05-06T04:42:16.381Z,86.70
2018-05-06T04:44:43.988Z,84.00
2018-05-06T04:47:11.719Z,82.90
2018-05-06T04:49:39.354Z,80.40
2018-05-06T04:52:06.977Z,77.90
2018-05-06T04:54:34.653Z,75.20
2018-05-06T04:57:02.285Z,74.10
2018-05-06T04:59:29.923Z,73.10
2018-05-06T05:01:57.683Z,70.70
2018-05-06T05:04:26.065Z,68.20
2018-05-06T05:06:54.456Z,67.40
2018-05-06T05:09:22.872Z,65.40
2018-05-06T05:11:50.559Z,65.30
2018-05-06T05:14:18.225Z,64.70
2018-05-06T05:16:45.883Z,63.10
2018-05-06T05:19:14.260Z,61.40
2018-05-06T05:21:42.742Z,59.10
2018-05-06T05:24:10.463Z,59.10
2018-05-06T05:26:38.081Z,58.90
2018-05-06T05:29:05.737Z,57.30
2018-05-06T05:31:33.611Z,57.20
2018-05-06T05:34:01.255Z,56.80
2018-05-06T05:36:28.981Z,56.50
2018-05-06T05:38:56.838Z,54.90
2018-05-06T05:41:24.721Z,53.80
2018-05-06T05:43:52.348Z,53.90
2018-05-06T05:46:20.025Z,54.60
2018-05-06T05:48:47.840Z,53.90
2018-05-06T05:51:15.461Z,52.40
2018-05-06T05:53:43.893Z,49.80
2018-05-06T05:56:11.541Z,49.70
2018-05-06T05:58:39.377Z,49.60
2018-05-06T06:01:07.118Z,47.60
2018-05-06T06:03:34.939Z,47.30
2018-05-06T06:06:03.363Z,46.50
2018-05-06T06:08:31.080Z,46.50
2018-05-06T06:10:58.810Z,45.90
2018-05-06T06:13:26.861Z,45.50
2018-05-06T06:15:54.716Z,44.50
2018-05-06T06:18:22.355Z,43.50
2018-05-06T06:20:50.042Z,42.90
2018-05-06T06:23:19.069Z,42.30
2018-05-06T06:25:46.689Z,42.30
2018-05-06T06:28:15.109Z,41.70
2018-05-06T06:30:42.766Z,41.60
2018-05-06T06:33:10.473Z,41.00
2018-05-06T06:35:38.085Z,40.50
2018-05-06T06:38:06.626Z,41.10
2018-05-06T06:40:34.249Z,40.80
2018-05-06T06:43:01.865Z,40.20
2018-05-06T06:45:29.625Z,40.40
2018-05-06T06:47:57.317Z,40.50
2018-05-06T06:50:25.689Z,41.10
2018-05-06T06:52:53.358Z,41.10
2018-05-06T06:55:21.745Z,40.40
2018-05-06T06:57:50.125Z,41.50
2018-05-06T07:00:19.466Z,42.20
2018-05-06T07:02:47.153Z,42.20
2018-05-06T07:05:14.767Z,43.20
2018-05-06T07:07:42.455Z,43.90
2018-05-06T07:10:10.845Z,45.20
2018-05-06T07:12:38.522Z,45.20
2018-05-06T07:17:44.021Z,46.40
2018-05-06T07:20:12.466Z,46.90
2018-05-06T07:22:40.080Z,46.90
2018-05-06T07:25:07.747Z,46.80
2018-05-06T07:27:36.129Z,47.30
2018-05-06T07:30:03.745Z,47.30
2018-05-06T07:32:31.394Z,47.80
2018-05-06T07:34:59.790Z,48.20
2018-05-06T07:37:27.406Z,48.10
2018-05-06T07:39:55.062Z,48.10
2018-05-06T07:42:22.689Z,48.10
2018-05-06T07:44:51.086Z,49.70
2018-05-06T07:47:19.463Z,49.50
2018-05-06T07:49:47.177Z,50.00
2018-05-06T07:52:14.857Z,49.50
2018-05-06T07:54:42.510Z,49.80
2018-05-06T07:57:10.933Z,50.20
2018-05-06T07:59:38.556Z,50.20
2018-05-06T08:02:07.930Z,49.70
2018-05-06T08:04:35.562Z,49.60
2018-05-06T08:07:03.953Z,48.20
2018-05-06T08:09:31.669Z,48.20
2018-05-06T08:11:59.321Z,48.20
2018-05-06T08:14:26.978Z,49.00
2018-05-06T08:16:54.661Z,49.10
2018-05-06T08:19:22.274Z,48.50
2018-05-06T08:21:50.013Z,49.10
2018-05-06T08:24:17.733Z,49.60
2018-05-06T08:26:45.359Z,49.40
2018-05-06T08:29:12.997Z,49.80
2018-05-06T08:31:41.444Z,49.50
2018-05-06T08:34:09.069Z,49.40
2018-05-06T08:36:37.489Z,49.30
2018-05-06T08:39:06.087Z,49.30
2018-05-06T08:41:33.697Z,48.50
2018-05-06T08:44:01.325Z,49.20
2018-05-06T08:46:29.006Z,50.10
2018-05-06T08:48:56.622Z,51.70
2018-05-06T08:51:24.253Z,50.60
2018-05-06T08:53:51.918Z,48.70
2018-05-06T08:56:19.917Z,48.00
2018-05-06T08:58:47.547Z,48.10
2018-05-06T09:01:15.997Z,49.30
2018-05-06T09:03:43.646Z,49.20
2018-05-06T09:06:11.847Z,50.30
2018-05-06T09:08:39.504Z,49.70
2018-05-06T09:11:07.164Z,48.90
2018-05-06T09:13:34.821Z,47.90
2018-05-06T09:16:02.623Z,46.60
2018-05-06T09:18:30.244Z,47.00
2018-05-06T09:20:57.853Z,47.40
2018-05-06T09:23:26.385Z,48.20
2018-05-06T09:25:54.019Z,48.20
2018-05-06T09:28:22.400Z,47.10
2018-05-06T09:30:50.828Z,46.90
2018-05-06T09:33:18.445Z,46.90
2018-05-06T09:35:46.083Z,47.60
2018-05-06T09:38:13.743Z,46.90
2018-05-06T09:40:41.362Z,46.10
2018-05-06T09:43:08.994Z,45.30
2018-05-06T09:45:36.649Z,46.20
2018-05-06T09:48:04.275Z,47.10
2018-05-06T09:50:32.021Z,46.10
2018-05-06T09:52:59.674Z,45.20
2018-05-06T09:55:27.287Z,46.20
2018-05-06T09:57:54.901Z,45.50
2018-05-06T10:00:22.781Z,45.50
2018-05-06T10:02:50.475Z,44.70
2018-05-06T10:05:18.144Z,46.20
2018-05-06T10:07:45.802Z,44.80
2018-05-06T10:10:14.241Z,44.80
2018-05-06T10:12:41.865Z,44.70
2018-05-06T10:15:10.381Z,44.30
2018-05-06T10:17:38.009Z,44.30
2018-05-06T10:20:05.634Z,43.60
2018-05-06T10:22:33.317Z,44.00
2018-05-06T10:25:01.010Z,43.10
2018-05-06T10:27:28.648Z,42.80
2018-05-06T10:29:56.309Z,42.50
2018-05-06T10:32:23.925Z,42.90
2018-05-06T10:34:51.603Z,44.50
2018-05-06T10:37:19.259Z,44.40
2018-05-06T10:39:46.915Z,44.10
2018-05-06T10:42:14.545Z,44.10
2018-05-06T10:44:42.259Z,44.40
2018-05-06T10:47:09.898Z,43.80
2018-05-06T10:49:37.576Z,45.50
2018-05-06T10:52:06.001Z,43.20
2018-05-06T10:54:33.790Z,43.20
2018-05-06T10:57:01.410Z,42.80
2018-05-06T10:59:29.117Z,43.00
2018-05-06T11:01:56.748Z,44.00
2018-05-06T11:04:24.376Z,43.30
2018-05-06T11:06:52.030Z,42.20
2018-05-06T11:09:20.592Z,43.20
2018-05-06T11:11:49.060Z,41.90
2018-05-06T11:14:16.817Z,41.90
2018-05-06T11:16:44.469Z,43.50
2018-05-06T11:19:12.172Z,42.10
2018-05-06T11:21:39.873Z,42.80
2018-05-06T11:24:07.489Z,43.10
2018-05-06T11:26:35.122Z,43.70
2018-05-06T11:29:02.803Z,43.60
2018-05-06T11:31:30.415Z,44.10
2018-05-06T11:33:58.050Z,44.40
2018-05-06T11:36:25.778Z,43.40
2018-05-06T11:38:53.466Z,43.20
2018-05-06T11:41:21.086Z,44.00
2018-05-06T11:43:50.170Z,45.30
2018-05-06T11:46:17.796Z,45.20
2018-05-06T11:48:45.424Z,45.30
2018-05-06T11:51:13.130Z,44.00
2018-05-06T11:53:40.746Z,44.40
2018-05-06T11:56:08.381Z,46.40
2018-05-06T11:58:36.049Z,46.10
2018-05-06T12:01:03.731Z,45.00
2018-05-06T12:03:31.359Z,45.20
2018-05-06T12:05:59.009Z,45.60
2018-05-06T12:08:26.620Z,44.90
2018-05-06T12:10:55.033Z,45.40
2018-05-06T12:13:22.722Z,45.40
2018-05-06T12:15:50.722Z,45.10
2018-05-06T12:18:18.363Z,45.70
2018-05-06T12:20:46.148Z,45.00
2018-05-06T12:23:13.846Z,45.70
2018-05-06T12:25:41.489Z,47.10
2018-05-06T12:28:09.155Z,46.10
2018-05-06T12:30:36.778Z,46.20
2018-05-06T12:33:04.409Z,45.10
2018-05-06T12:35:32.065Z,47.70
2018-05-06T12:38:00.441Z,46.10
2018-05-06T12:40:28.825Z,47.50
2018-05-06T12:42:56.473Z,46.70
2018-05-06T12:45:24.089Z,46.90
2018-05-06T12:47:52.477Z,46.70
2018-05-06T12:50:21.717Z,46.70
2018-05-06T12:52:49.365Z,46.70
2018-05-06T12:55:17.765Z,47.20
2018-05-06T12:57:45.462Z,47.20
2018-05-06T13:00:13.257Z,47.80
2018-05-06T13:02:40.869Z,47.00
2018-05-06T13:05:08.530Z,47.10
2018-05-06T13:07:36.150Z,48.00
2018-05-06T13:10:03.787Z,47.20
2018-05-06T13:12:31.442Z,47.00
2018-05-06T13:14:59.068Z,46.90
2018-05-06T13:17:26.685Z,47.60
2018-05-06T13:19:54.369Z,47.30
2018-05-06T13:22:22.117Z,48.30
2018-05-06T13:24:49.729Z,47.70
2018-05-06T13:27:17.393Z,47.20
2018-05-06T13:29:45.777Z,48.20
2018-05-06T13:32:13.401Z,48.20
2018-05-06T13:34:41.062Z,47.70
2018-05-06T13:37:08.770Z,47.90
2018-05-06T13:39:36.385Z,48.70
2018-05-06T13:42:04.808Z,47.90
2018-05-06T13:44:32.418Z,47.50
2018-05-06T13:47:00.035Z,47.50
2018-05-06T13:49:28.467Z,48.70
2018-05-06T13:51:56.114Z,48.70
2018-05-06T13:54:23.729Z,47.60
2018-05-06T13:56:51.386Z,47.30
2018-05-06T13:59:18.997Z,47.20
2018-05-06T14:01:46.730Z,46.20
2018-05-06T14:04:14.504Z,47.20
2018-05-06T14:06:42.126Z,46.90
2018-05-06T14:09:09.753Z,47.00
2018-05-06T14:11:37.507Z,47.30
2018-05-06T14:14:05.166Z,48.50
2018-05-06T14:16:33.566Z,48.80
2018-05-06T14:19:01.227Z,48.80
2018-05-06T14:21:30.782Z,47.80
2018-05-06T14:23:59.158Z,47.80
2018-05-06T14:26:27.220Z,47.70
2018-05-06T14:31:28.818Z,47.70
2018-05-06T14:33:56.735Z,47.50
2018-05-06T14:36:24.928Z,47.20
2018-05-06T14:38:53.518Z,46.90
2018-05-06T14:41:21.773Z,46.10
2018-05-06T14:43:49.470Z,46.90
2018-05-06T14:46:29.090Z,46.10
2018-05-06T14:48:56.967Z,46.30
2018-05-06T14:51:25.360Z,46.70
2018-05-06T14:53:53.785Z,46.90
2018-05-06T14:56:21.593Z,46.80
2018-05-06T14:58:49.222Z,47.20
2018-05-06T15:01:17.020Z,47.00
2018-05-06T15:03:45.214Z,47.00
2018-05-06T15:06:12.820Z,47.10
2018-05-06T15:08:41.274Z,48.10
2018-05-06T15:11:08.893Z,48.10
2018-05-06T15:13:37.276Z,48.20
2018-05-06T15:16:04.956Z,47.80
2018-05-06T15:18:33.395Z,48.10
2018-05-06T15:21:01.010Z,47.60
2018-05-06T15:23:28.674Z,47.40
2018-05-06T15:25:56.296Z,48.80
2018-05-06T15:28:23.984Z,47.70
2018-05-06T15:30:52.693Z,47.80
2018-05-06T15:33:21.442Z,48.50
2018-05-06T15:35:49.857Z,48.40
2018-05-06T15:38:17.529Z,48.40
2018-05-06T15:40:45.640Z,49.00
2018-05-06T15:43:14.251Z,49.70
2018-05-06T15:45:41.930Z,48.80
2018-05-06T15:48:12.083Z,48.80
2018-05-06T15:50:39.810Z,48.80
2018-05-06T15:53:09.492Z,48.40
2018-05-06T15:55:38.641Z,47.70
2018-05-06T15:58:08.364Z,47.70
2018-05-06T16:00:36.083Z,48.30
2018-05-06T16:03:16.220Z,48.00
2018-05-06T16:05:43.898Z,46.90
2018-05-06T16:08:11.995Z,47.20
2018-05-06T16:10:39.623Z,46.10
2018-05-06T16:13:07.723Z,47.00
2018-05-06T16:15:35.348Z,46.50
2018-05-06T16:18:03.795Z,47.40
2018-05-06T16:20:31.563Z,47.40
2018-05-06T16:22:59.466Z,46.30
2018-05-06T16:25:27.097Z,45.50
2018-05-06T16:27:55.820Z,46.00
2018-05-06T16:30:23.478Z,46.00
2018-05-06T16:32:51.151Z,46.00
2018-05-06T16:35:18.847Z,45.90
2018-05-06T16:37:46.594Z,45.70
2018-05-06T16:40:14.883Z,46.10
2018-05-06T16:42:42.558Z,45.80
2018-05-06T16:45:10.189Z,46.20
2018-05-06T16:47:38.117Z,46.10
2018-05-06T16:50:05.794Z,46.10
2018-05-06T16:52:33.412Z,46.10
2018-05-06T16:55:01.165Z,46.50
2018-05-06T16:57:28.838Z,46.70
2018-05-06T16:59:56.461Z,47.10
2018-05-06T17:02:25.825Z,46.70
2018-05-06T17:04:53.491Z,46.60
2018-05-06T17:07:21.122Z,46.90
2018-05-06T17:09:49.014Z,47.30
2018-05-06T17:12:16.678Z,47.80
2018-05-06T17:14:44.310Z,47.10
2018-05-06T17:17:11.934Z,47.70
2018-05-06T17:19:39.633Z,47.90
2018-05-06T17:22:07.258Z,47.80
2018-05-06T17:24:35.667Z,48.30
2018-05-06T17:27:03.335Z,48.30
2018-05-06T17:29:30.970Z,48.80
2018-05-06T17:31:58.602Z,48.80
2018-05-06T17:34:26.970Z,48.40
2018-05-06T17:36:55.357Z,48.60
2018-05-06T17:39:23.170Z,48.70
2018-05-06T17:41:50.840Z,48.40
2018-05-06T17:44:18.465Z,48.70
2018-05-06T17:46:46.351Z,48.70
2018-05-06T17:49:15.334Z,48.50
2018-05-06T17:51:42.966Z,48.90
2018-05-06T17:54:10.638Z,49.20
2018-05-06T17:56:38.447Z,49.60
2018-05-06T17:59:06.082Z,49.80
2018-05-06T18:01:33.811Z,49.70
2018-05-06T18:04:01.463Z,49.90
2018-05-06T18:06:29.088Z,50.20
2018-05-06T18:08:56.726Z,50.70
2018-05-06T18:11:25.313Z,50.80
2018-05-06T18:13:52.939Z,51.40
2018-05-06T18:16:20.562Z,51.50
2018-05-06T18:18:49.146Z,51.70
2018-05-06T18:21:16.831Z,51.40
2018-05-06T18:23:44.467Z,51.60
2018-05-06T18:26:12.122Z,51.30
2018-05-06T18:28:39.789Z,51.50
2018-05-06T18:31:07.489Z,51.40
2018-05-06T18:33:35.253Z,51.70
2018-05-06T18:36:02.914Z,51.70
2018-05-06T18:38:30.950Z,51.60
2018-05-06T18:40:58.605Z,51.60
2018-05-06T18:43:26.810Z,51.70
2018-05-06T18:45:55.068Z,51.60
2018-05-06T18:48:22.854Z,52.00
2018-05-06T18:50:51.455Z,52.10
2018-05-06T18:53:19.318Z,52.40
2018-05-06T18:55:47.115Z,52.60
2018-05-06T18:58:16.870Z,52.70
2018-05-06T19:00:44.599Z,52.90
2018-05-06T19:03:12.579Z,52.90
2018-05-06T19:05:40.209Z,53.00
2018-05-06T19:08:08.928Z,53.10
2018-05-06T19:10:36.701Z,53.10
2018-05-06T19:13:04.318Z,53.30
2018-05-06T19:15:32.178Z,53.40
2018-05-06T19:17:59.995Z,53.60
2018-05-06T19:20:28.597Z,53.70
2018-05-06T19:22:56.259Z,54.00
2018-05-06T19:25:23.928Z,54.80
2018-05-06T19:27:52.311Z,55.90
2018-05-06T19:30:19.903Z,56.70
2018-05-06T19:32:47.585Z,57.20
2018-05-06T19:35:15.269Z,57.70
2018-05-06T19:37:43.727Z,59.50
2018-05-06T19:40:12.230Z,59.50
2018-05-06T19:42:40.524Z,60.30
2018-05-06T19:45:09.380Z,62.40
2018-05-06T19:47:37.568Z,62.30
2018-05-06T19:50:05.201Z,63.00
2018-05-06T19:52:33.590Z,65.10
2018-05-06T19:55:02.693Z,64.80
2018-05-06T19:57:30.359Z,64.80
2018-05-06T19:59:57.999Z,65.30
2018-05-06T20:02:26.684Z,66.30
2018-05-06T20:04:54.859Z,66.10
2018-05-06T20:07:22.520Z,66.60
2018-05-06T20:09:50.278Z,67.00
2018-05-06T20:12:18.668Z,67.70
2018-05-06T20:14:46.377Z,67.70
2018-05-06T20:17:14.032Z,68.10
2018-05-06T20:19:42.007Z,68.30
2018-05-06T20:22:09.631Z,68.70
2018-05-06T20:24:37.397Z,69.00
2018-05-06T20:27:05.282Z,69.20
2018-05-06T20:29:33.289Z,69.70
2018-05-06T20:32:01.053Z,70.00
2018-05-06T20:34:28.727Z,70.20
2018-05-06T20:36:56.833Z,70.40
2018-05-06T20:39:26.191Z,71.20
2018-05-06T20:41:53.830Z,71.20
2018-05-06T20:44:22.746Z,71.90
2018-05-06T20:46:51.172Z,72.20
2018-05-06T20:49:18.859Z,72.20
2018-05-06T20:51:46.495Z,72.70
2018-05-06T20:54:14.220Z,72.90
2018-05-06T20:56:41.882Z,72.90
2018-05-06T20:59:10.434Z,73.20
2018-05-06T21:01:38.098Z,73.00
2018-05-06T21:04:06.509Z,73.50
2018-05-06T21:06:34.130Z,73.40
2018-05-06T21:09:02.058Z,73.70
2018-05-06T21:11:29.968Z,73.80
2018-05-06T21:13:57.627Z,74.00
2018-05-06T21:16:27.126Z,74.30
2018-05-06T21:18:55.243Z,74.20
2018-05-06T21:21:22.875Z,74.50
2018-05-06T21:23:50.551Z,74.50
2018-05-06T21:26:18.178Z,74.70
2018-05-06T21:28:45.835Z,74.70
2018-05-06T21:31:13.505Z,74.70
2018-05-06T21:33:41.463Z,74.80
2018-05-06T21:36:09.082Z,74.80
2018-05-06T21:38:37.213Z,74.80
2018-05-06T21:41:04.843Z,75.00
2018-05-06T21:43:32.530Z,74.60
2018-05-06T21:46:00.176Z,74.60
2018-05-06T21:48:27.813Z,74.80
2018-05-06T21:50:56.386Z,75.00
2018-05-06T21:53:24.053Z,75.30
2018-05-06T21:55:52.442Z,75.40
2018-05-06T21:58:20.822Z,75.50
2018-05-06T22:00:49.251Z,75.60
2018-05-06T22:03:16.870Z,75.60
2018-05-06T22:05:44.485Z,75.80
2018-05-06T22:08:12.142Z,76.00
2018-05-06T22:10:40.545Z,76.10
2018-05-06T22:13:08.160Z,76.00
2018-05-06T22:15:35.941Z,76.10
2018-05-06T22:18:04.363Z,76.40
2018-05-06T22:20:32.749Z,76.60
2018-05-06T22:23:01.178Z,76.90
2018-05-06T22:25:28.812Z,76.80
2018-05-06T22:27:56.540Z,77.00
2018-05-06T22:30:24.307Z,77.10
2018-05-06T22:32:51.925Z,77.30
2018-05-06T22:35:19.556Z,77.30
2018-05-06T22:37:47.220Z,77.50
2018-05-06T22:40:14.833Z,77.90
2018-05-06T22:42:42.447Z,78.10
2018-05-06T22:45:10.978Z,78.30
2018-05-06T22:47:38.648Z,78.30
2018-05-06T22:50:06.264Z,78.70
2018-05-06T22:52:33.915Z,79.00
2018-05-06T22:55:01.547Z,79.10
2018-05-06T22:57:29.174Z,79.60
2018-05-06T22:59:56.845Z,80.00
2018-05-06T23:02:24.457Z,80.20
2018-05-06T23:04:52.070Z,80.40
2018-05-06T23:07:19.733Z,80.80
2018-05-06T23:09:47.635Z,81.00
2018-05-06T23:12:15.243Z,81.30
2018-05-06T23:14:43.761Z,82.30
2018-05-06T23:17:11.373Z,82.30
2018-05-06T23:19:38.994Z,82.70
2018-05-06T23:22:07.418Z,83.60
2018-05-06T23:24:35.037Z,83.50
2018-05-06T23:27:03.421Z,84.30
2018-05-06T23:29:31.082Z,84.30
2018-05-06T23:31:58.702Z,84.60
2018-05-06T23:34:26.732Z,84.90
2018-05-06T23:36:54.393Z,85.20
2018-05-06T23:39:21.997Z,85.40
2018-05-06T23:41:49.614Z,85.70
2018-05-06T23:44:17.273Z,85.90
2018-05-06T23:46:44.885Z,86.40
2018-05-06T23:49:12.506Z,87.00
2018-05-06T23:51:40.942Z,87.80
2018-05-06T23:54:08.590Z,87.80
2018-05-06T23:56:36.204Z,87.80
2018-05-06T23:59:03.877Z,88.20
